Time,TemperatureF,DewpointF,PressureIn,WindDirection,WindDirectionDegrees,WindSpeedMPH,WindSpeedGustMPH,Humidity,HourlyPrecipIn,Conditions,Clouds,dailyrainin,SolarRadiationWatts/m^2,SoftwareType,DateUTC
2013-09-03 00:03:00,45.0,44.0,-100.00,SW,233,0.0,4.0,95,0.00,,,-99.99,0.000000,,2013-09-03 05:03:00,
2013-09-03 00:23:00,44.0,42.0,-100.00,SSE,153,2.0,3.0,94,0.00,,,0.00,0.000000,,2013-09-03 05:23:00,
2013-09-03 00:34:00,44.0,42.0,-100.00,SSE,153,2.0,3.0,94,0.00,,,0.00,0.000000,,2013-09-03 05:34:00,
2013-09-03 00:43:00,44.0,42.0,-100.00,SSE,153,2.0,3.0,94,0.00,,,0.00,0.000000,,2013-09-03 05:43:00,
2013-09-03 00:52:00,44.0,42.0,-100.00,SSE,153,2.0,3.0,94,0.00,,,0.00,0.000000,,2013-09-03 05:52:00,
2013-09-03 01:02:00,44.0,42.0,-100.00,SSE,153,2.0,3.0,94,0.00,,,0.00,0.000000,,2013-09-03 06:02:00,
2013-09-03 01:43:00,41.0,39.0,-100.00,WSW,252,1.0,3.0,94,0.00,,,0.00,0.000000,,2013-09-03 06:43:00,
2013-09-03 01:52:00,41.0,39.0,-100.00,WSW,252,1.0,3.0,94,0.00,,,0.00,0.000000,,2013-09-03 06:52:00,
2013-09-03 02:02:00,41.0,39.0,-100.00,WSW,252,1.0,3.0,94,0.00,,,0.00,0.000000,,2013-09-03 07:02:00,
2013-09-03 02:22:00,41.0,40.0,-100.00,WSW,239,0.0,0.0,96,0.00,,,0.00,0.000000,,2013-09-03 07:22:00,
2013-09-03 02:32:00,41.0,40.0,-100.00,WSW,239,0.0,0.0,96,0.00,,,0.00,0.000000,,2013-09-03 07:32:00,
2013-09-03 02:42:00,41.0,40.0,-100.00,WSW,239,0.0,0.0,96,0.00,,,0.00,0.000000,,2013-09-03 07:42:00,
2013-09-03 02:53:00,41.0,40.0,-100.00,WSW,239,0.0,0.0,96,0.00,,,0.00,0.000000,,2013-09-03 07:53:00,
2013-09-03 03:03:00,41.0,40.0,-100.00,WSW,239,0.0,0.0,96,0.00,,,0.00,0.000000,,2013-09-03 08:03:00,
2013-09-03 03:22:00,39.0,38.0,-100.00,SSW,196,1.0,4.0,97,0.00,,,0.00,0.000000,,2013-09-03 08:22:00,
2013-09-03 03:32:00,39.0,38.0,-100.00,SSW,196,1.0,4.0,97,0.00,,,0.00,0.000000,,2013-09-03 08:32:00,
2013-09-03 03:42:00,39.0,38.0,-100.00,SSW,196,1.0,4.0,97,0.00,,,0.00,0.000000,,2013-09-03 08:42:00,
2013-09-03 03:52:00,39.0,38.0,-100.00,SSW,196,1.0,4.0,97,0.00,,,0.00,0.000000,,2013-09-03 08:52:00,
2013-09-03 04:02:00,39.0,38.0,-100.00,SSW,196,1.0,4.0,97,0.00,,,0.00,0.000000,,2013-09-03 09:02:00,
2013-09-03 04:43:00,39.0,38.0,-100.00,SSW,204,2.0,4.0,95,0.00,,,0.00,0.000000,,2013-09-03 09:43:00,
2013-09-03 04:53:00,39.0,38.0,-100.00,SSW,204,2.0,4.0,95,0.00,,,0.00,0.000000,,2013-09-03 09:53:00,
2013-09-03 05:03:00,39.0,38.0,-100.00,SSW,204,2.0,4.0,95,0.00,,,0.00,0.000000,,2013-09-03 10:03:00,
2013-09-03 05:23:00,38.0,37.0,-100.00,SE,135,3.0,4.0,95,0.00,,,0.00,0.000000,,2013-09-03 10:23:00,
2013-09-03 05:33:00,38.0,37.0,-100.00,SE,135,3.0,4.0,95,0.00,,,0.00,0.000000,,2013-09-03 10:33:00,
2013-09-03 05:42:00,38.0,37.0,-100.00,SE,135,3.0,4.0,95,0.00,,,0.00,0.000000,,2013-09-03 10:42:00,
2013-09-03 05:53:00,38.0,37.0,-100.00,SE,135,3.0,4.0,95,0.00,,,0.00,0.000000,,2013-09-03 10:53:00,
2013-09-03 06:02:00,38.0,37.0,-100.00,SE,135,3.0,4.0,95,0.00,,,0.00,0.000000,,2013-09-03 11:02:00,
2013-09-03 06:23:00,37.0,35.0,-100.00,SE,146,3.0,4.0,94,0.00,,,0.00,0.000000,,2013-09-03 11:23:00,
2013-09-03 06:33:00,37.0,35.0,-100.00,SE,146,3.0,4.0,94,0.00,,,0.00,0.000000,,2013-09-03 11:33:00,
2013-09-03 06:43:00,37.0,35.0,-100.00,SE,146,3.0,4.0,94,0.00,,,0.00,0.000000,,2013-09-03 11:43:00,
2013-09-03 06:52:00,37.0,35.0,-100.00,SE,146,3.0,4.0,94,0.00,,,0.00,0.000000,,2013-09-03 11:52:00,
2013-09-03 07:02:00,37.0,35.0,-100.00,SE,146,3.0,4.0,94,0.00,,,0.00,0.000000,,2013-09-03 12:02:00,
2013-09-03 07:22:00,38.0,37.0,-100.00,SE,136,2.0,3.0,95,0.00,,,0.00,10.000000,,2013-09-03 12:22:00,
2013-09-03 07:32:00,38.0,37.0,-100.00,SE,136,2.0,3.0,95,0.00,,,0.00,10.000000,,2013-09-03 12:32:00,
2013-09-03 07:42:00,38.0,37.0,-100.00,SE,136,2.0,3.0,95,0.00,,,0.00,10.000000,,2013-09-03 12:42:00,
2013-09-03 07:52:00,38.0,37.0,-100.00,SE,136,2.0,3.0,95,0.00,,,0.00,10.000000,,2013-09-03 12:52:00,
2013-09-03 08:02:00,38.0,37.0,-100.00,SE,136,2.0,3.0,95,0.00,,,0.00,10.000000,,2013-09-03 13:02:00,
2013-09-03 08:42:00,50.0,49.0,-100.00,South,182,4.0,6.0,95,0.00,,,0.00,157.000000,,2013-09-03 13:42:00,
2013-09-03 08:52:00,50.0,49.0,-100.00,South,182,4.0,6.0,95,0.00,,,0.00,157.000000,,2013-09-03 13:52:00,
2013-09-03 09:01:00,50.0,49.0,-100.00,South,182,4.0,6.0,95,0.00,,,0.00,157.000000,,2013-09-03 14:01:00,
2013-09-03 09:21:00,56.0,52.0,-100.00,WSW,243,5.0,7.0,88,0.00,,,0.00,327.000000,,2013-09-03 14:21:00,
2013-09-03 09:32:00,56.0,52.0,-100.00,WSW,243,5.0,7.0,88,0.00,,,0.00,327.000000,,2013-09-03 14:32:00,
2013-09-03 09:42:00,56.0,52.0,-100.00,WSW,243,5.0,7.0,88,0.00,,,0.00,327.000000,,2013-09-03 14:42:00,
2013-09-03 09:52:00,56.0,52.0,-100.00,WSW,243,5.0,7.0,88,0.00,,,0.00,327.000000,,2013-09-03 14:52:00,
2013-09-03 10:02:00,56.0,52.0,-100.00,WSW,243,5.0,7.0,88,0.00,,,0.00,327.000000,,2013-09-03 15:02:00,
2013-09-03 10:04:00,62.0,54.0,-100.00,SW,233,7.0,15.0,74,0.00,,,0.00,503.000000,,2013-09-03 15:04:00,
2013-09-03 10:43:00,62.0,54.0,-100.00,SW,233,7.0,15.0,74,0.00,,,0.00,503.000000,,2013-09-03 15:43:00,
2013-09-03 10:54:00,62.0,54.0,-100.00,SW,233,7.0,15.0,74,0.00,,,0.00,503.000000,,2013-09-03 15:54:00,
2013-09-03 11:43:00,67.0,53.0,-100.00,WSW,251,8.0,15.0,61,0.00,,,0.00,643.000000,,2013-09-03 16:43:00,
2013-09-03 11:54:00,67.0,53.0,-100.00,WSW,251,8.0,15.0,61,0.00,,,0.00,643.000000,,2013-09-03 16:54:00,
2013-09-03 12:03:00,67.0,53.0,-100.00,WSW,251,8.0,15.0,61,0.00,,,0.00,643.000000,,2013-09-03 17:03:00,
2013-09-03 12:43:00,70.0,52.0,-100.00,West,268,9.0,15.0,53,0.00,,,0.00,785.000000,,2013-09-03 17:43:00,
2013-09-03 12:52:00,70.0,52.0,-100.00,West,268,9.0,15.0,53,0.00,,,0.00,785.000000,,2013-09-03 17:52:00,
2013-09-03 13:02:00,70.0,52.0,-100.00,West,268,9.0,15.0,53,0.00,,,0.00,785.000000,,2013-09-03 18:02:00,
2013-09-03 13:43:00,73.0,53.0,-100.00,WSW,237,9.0,14.0,49,0.00,,,0.00,848.000000,,2013-09-03 18:43:00,
2013-09-03 13:52:00,73.0,53.0,-100.00,WSW,237,9.0,14.0,49,0.00,,,0.00,848.000000,,2013-09-03 18:52:00,
2013-09-03 14:02:00,73.0,53.0,-100.00,WSW,237,9.0,14.0,49,0.00,,,0.00,848.000000,,2013-09-03 19:02:00,
2013-09-03 14:42:00,75.0,52.0,-100.00,SW,230,8.0,16.0,44,0.00,,,0.00,853.000000,,2013-09-03 19:42:00,
2013-09-03 14:52:00,75.0,52.0,-100.00,SW,230,8.0,16.0,44,0.00,,,0.00,853.000000,,2013-09-03 19:52:00,
2013-09-03 15:02:00,75.0,52.0,-100.00,SW,230,8.0,16.0,44,0.00,,,0.00,853.000000,,2013-09-03 20:02:00,
2013-09-03 15:22:00,77.0,54.0,-100.00,WSW,242,10.0,15.0,45,0.00,,,0.00,797.000000,,2013-09-03 20:22:00,
2013-09-03 15:32:00,77.0,54.0,-100.00,WSW,242,10.0,15.0,45,0.00,,,0.00,797.000000,,2013-09-03 20:32:00,
2013-09-03 15:42:00,77.0,54.0,-100.00,WSW,242,10.0,15.0,45,0.00,,,0.00,797.000000,,2013-09-03 20:42:00,
2013-09-03 15:53:00,77.0,54.0,-100.00,WSW,242,10.0,15.0,45,0.00,,,0.00,797.000000,,2013-09-03 20:53:00,
2013-09-03 16:01:00,77.0,54.0,-100.00,WSW,242,10.0,15.0,45,0.00,,,0.00,797.000000,,2013-09-03 21:01:00,
2013-09-03 16:04:00,79.0,55.0,-100.00,WSW,256,10.0,18.0,44,0.00,,,0.00,715.000000,,2013-09-03 21:04:00,
2013-09-03 16:22:00,79.0,55.0,-100.00,WSW,256,10.0,18.0,44,0.00,,,0.00,715.000000,,2013-09-03 21:22:00,
2013-09-03 16:34:00,79.0,55.0,-100.00,WSW,256,10.0,18.0,44,0.00,,,0.00,715.000000,,2013-09-03 21:34:00,
2013-09-03 16:44:00,79.0,55.0,-100.00,WSW,256,10.0,18.0,44,0.00,,,0.00,715.000000,,2013-09-03 21:44:00,
2013-09-03 16:54:00,79.0,55.0,-100.00,WSW,256,10.0,18.0,44,0.00,,,0.00,715.000000,,2013-09-03 21:54:00,
2013-09-03 17:04:00,78.0,55.0,-100.00,WSW,249,10.0,16.0,45,0.00,,,0.00,561.000000,,2013-09-03 22:04:00,
2013-09-03 17:43:00,78.0,55.0,-100.00,WSW,249,10.0,16.0,45,0.00,,,0.00,561.000000,,2013-09-03 22:43:00,
2013-09-03 17:53:00,78.0,55.0,-100.00,WSW,249,10.0,16.0,45,0.00,,,0.00,561.000000,,2013-09-03 22:53:00,
2013-09-03 18:23:00,78.0,57.0,-100.00,WSW,243,10.0,16.0,48,0.00,,,0.00,360.000000,,2013-09-03 23:23:00,
2013-09-03 18:34:00,78.0,57.0,-100.00,WSW,243,10.0,16.0,48,0.00,,,0.00,360.000000,,2013-09-03 23:34:00,
2013-09-03 18:42:00,78.0,57.0,-100.00,WSW,243,10.0,16.0,48,0.00,,,0.00,360.000000,,2013-09-03 23:42:00,
2013-09-03 18:54:00,78.0,57.0,-100.00,WSW,243,10.0,16.0,48,0.00,,,0.00,360.000000,,2013-09-03 23:54:00,
2013-09-03 19:02:00,78.0,57.0,-100.00,WSW,243,10.0,16.0,48,0.00,,,0.00,360.000000,,2013-09-04 00:02:00,
2013-09-03 19:22:00,74.0,56.0,-100.00,WSW,244,8.0,18.0,54,0.00,,,0.00,168.000000,,2013-09-04 00:22:00,
2013-09-03 19:32:00,74.0,56.0,-100.00,WSW,244,8.0,18.0,54,0.00,,,0.00,168.000000,,2013-09-04 00:32:00,
2013-09-03 19:42:00,74.0,56.0,-100.00,WSW,244,8.0,18.0,54,0.00,,,0.00,168.000000,,2013-09-04 00:42:00,
2013-09-03 19:52:00,74.0,56.0,-100.00,WSW,244,8.0,18.0,54,0.00,,,0.00,168.000000,,2013-09-04 00:52:00,
2013-09-03 20:01:00,74.0,56.0,-100.00,WSW,244,8.0,18.0,54,0.00,,,0.00,168.000000,,2013-09-04 01:01:00,
2013-09-03 20:22:00,69.0,57.0,-100.00,SW,226,4.0,13.0,66,0.00,,,0.00,20.000000,,2013-09-04 01:22:00,
2013-09-03 20:32:00,69.0,57.0,-100.00,SW,226,4.0,13.0,66,0.00,,,0.00,20.000000,,2013-09-04 01:32:00,
2013-09-03 20:42:00,69.0,57.0,-100.00,SW,226,4.0,13.0,66,0.00,,,0.00,20.000000,,2013-09-04 01:42:00,
2013-09-03 20:53:00,69.0,57.0,-100.00,SW,226,4.0,13.0,66,0.00,,,0.00,20.000000,,2013-09-04 01:53:00,
2013-09-03 21:02:00,69.0,57.0,-100.00,SW,226,4.0,13.0,66,0.00,,,0.00,20.000000,,2013-09-04 02:02:00,
2013-09-03 21:22:00,67.0,59.0,-100.00,SW,232,5.0,9.0,76,0.00,,,0.00,0.000000,,2013-09-04 02:22:00,
2013-09-03 21:32:00,67.0,59.0,-100.00,SW,232,5.0,9.0,76,0.00,,,0.00,0.000000,,2013-09-04 02:32:00,
2013-09-03 21:43:00,67.0,59.0,-100.00,SW,232,5.0,9.0,76,0.00,,,0.00,0.000000,,2013-09-04 02:43:00,
2013-09-03 21:52:00,67.0,59.0,-100.00,SW,232,5.0,9.0,76,0.00,,,0.00,0.000000,,2013-09-04 02:52:00,
2013-09-03 22:03:00,67.0,59.0,-100.00,SW,232,5.0,9.0,76,0.00,,,0.00,0.000000,,2013-09-04 03:03:00,
2013-09-03 22:04:00,67.0,60.0,-100.00,WSW,241,7.0,10.0,79,0.00,,,0.00,0.000000,,2013-09-04 03:04:00,
2013-09-03 22:22:00,67.0,60.0,-100.00,WSW,241,7.0,10.0,79,0.00,,,0.00,0.000000,,2013-09-04 03:22:00,
2013-09-03 22:35:00,67.0,60.0,-100.00,WSW,241,7.0,10.0,79,0.00,,,0.00,0.000000,,2013-09-04 03:35:00,
2013-09-03 22:44:00,67.0,60.0,-100.00,WSW,241,7.0,10.0,79,0.00,,,0.00,0.000000,,2013-09-04 03:44:00,
2013-09-03 22:54:00,67.0,60.0,-100.00,WSW,241,7.0,10.0,79,0.00,,,0.00,0.000000,,2013-09-04 03:54:00,
2013-09-03 23:24:00,67.0,61.0,-100.00,WSW,248,6.0,10.0,80,0.00,,,0.00,0.000000,,2013-09-04 04:24:00,
2013-09-03 23:33:00,67.0,61.0,-100.00,WSW,248,6.0,10.0,80,0.00,,,0.00,0.000000,,2013-09-04 04:33:00,
2013-09-03 23:44:00,67.0,61.0,-100.00,WSW,248,6.0,10.0,80,0.00,,,0.00,0.000000,,2013-09-04 04:44:00,
2013-09-03 23:54:00,67.0,61.0,-100.00,WSW,248,6.0,10.0,80,0.00,,,0.00,0.000000,,2013-09-04 04:54:00,